カイエンヌ の空港の天気 - METARとTAF

カイエンヌ/ロシャンボー空港 ( SOCA / CAY ) - フランス領ギアナ カイエンヌ
飛行場実況気象(Metar)
観測時間11/14 14:00 GFT (11/14 17:00 UTC)
風向・風速不定 1m/s
視程10km以上
天気現象
-
気温26℃
湿度89%
気圧1009hPa
METARSOCA 141700Z AUTO VRB02KT 9999 ///TCU 26/24 Q1009 TEMPO 3000 SHRA SCT007 BKN015 BECMG 07015KT
過去の天気等 Google飛行場航空写真 Wunderground天気予報

過去48時間のMETAR

飛行場予報(TAF)
発表時間: 11/14 07:00 GFT (11/14 10:00 UTC)
予報対象時間: 14日9時 GFT ~ 15日9時 GFT
風向・風速東北東 8m/s
視程10km以上
全天の4割程度の雲 雲底高度 610m
全天の8割程度の雲 雲底高度 1010m
14日9時 GFT ~ 14日15時 GFT に一時的に
視程2000m
天気現象
全天の4割程度の雲 雲底高度 210m
全天の8割程度の雲 雲底高度 460m
14日15時 GFT ~ 15日6時 GFT に一時的に
視程3000m
天気現象しゅう雨
全天の4割程度の塔状積雲 雲底高度 400m
14日20時 GFT ~ 14日21時 GFT に徐々に
風向・風速東北東 3m/s
15日8時 GFT ~ 15日9時 GFT に徐々に
風向・風速東 6m/s
全天の8割程度の雲 雲底高度 790m
TAF SOCA 141000Z 1412/1512 07015KT 9999 SCT020 BKN033
TEMPO 1412/1418 2000 RA SCT007 BKN015
TEMPO 1418/1509 3000 SHRA SCT013TCU
BECMG 1423/1424 06006KT
BECMG 1511/1512 09012KT BKN026